Time;durP1;ratioP1;P1;durP2;ratioP2;P2;SDS_P1;SDS_P2;PMS_P1;PMS_P2;Temp;Humidity;BMP_temperature;BMP_pressure;BME280_temperature;BME280_humidity;BME280_pressure;Samples;Min_cycle;Max_cycle;Signal;HPM_P1;HPM_P2
2021/05/27 00:00:08;;;;;;;;;;;11.20;99.90;;;;;;5086227;28;19959;-75
2021/05/27 00:02:34;;;;;;;;;;;11.20;99.90;;;;;;5096349;28;20565;-75
2021/05/27 00:05:00;;;;;;;;;;;11.20;99.90;;;;;;5088322;28;20294;-75
2021/05/27 00:07:27;;;;;;;;;;;11.20;99.90;;;;;;5083659;28;20479;-75
2021/05/27 00:09:53;;;;;;;;;;;11.20;99.90;;;;;;5086948;28;19958;-75
2021/05/27 00:12:20;;;;;;;;;;;11.20;99.90;;;;;;5087592;28;19958;-75
2021/05/27 00:14:48;;;;;;;;;;;11.20;99.90;;;;;;5085110;28;20011;-74
2021/05/27 00:17:14;;;;;;;;;;;11.10;99.90;;;;;;5086105;28;19985;-75
2021/05/27 00:19:41;;;;;;;46.95;13.60;;;11.10;99.90;;;;;;5064682;28;20055;-75
2021/05/27 00:22:07;;;;;;;;;;;11.10;99.90;;;;;;5086563;28;20190;-75
2021/05/27 00:24:35;;;;;;;;;;;11.10;99.90;;;;;;5068835;28;20402;-75
2021/05/27 00:27:03;;;;;;;;;;;11.10;99.90;;;;;;5083449;28;19998;-75
2021/05/27 00:29:29;;;;;;;;;;;11.10;99.90;;;;;;5081059;28;19962;-75
2021/05/27 00:31:55;;;;;;;;;;;11.10;99.90;;;;;;5084138;28;19959;-75
2021/05/27 00:34:21;;;;;;;;;;;11.00;99.90;;;;;;5086557;28;20414;-75
2021/05/27 00:36:48;;;;;;;;;;;11.10;99.90;;;;;;5084458;28;19958;-74
2021/05/27 00:39:14;;;;;;;;;;;11.00;99.90;;;;;;5086004;28;19962;-76
2021/05/27 00:41:41;;;;;;;;;;;11.00;99.90;;;;;;5083664;28;20056;-76
2021/05/27 00:44:18;;;;;;;;;;;11.00;99.90;;;;;;5084726;28;19955;-75
2021/05/27 00:46:44;;;;;;;;;;;11.00;99.90;;;;;;5068714;28;20071;-75
2021/05/27 00:49:10;;;;;;;;;;;11.00;99.90;;;;;;5085880;28;19954;-75
2021/05/27 00:51:37;;;;;;;;;;;11.00;99.90;;;;;;5097593;28;19961;-75
2021/05/27 00:54:04;;;;;;;;;;;11.00;99.90;;;;;;5085515;28;20574;-75
2021/05/27 00:56:32;;;;;;;;;;;10.90;99.90;;;;;;5100132;28;20339;-75
2021/05/27 00:59:00;;;;;;;;;;;10.90;99.90;;;;;;5067320;28;19965;-75
2021/05/27 01:01:26;;;;;;;;;;;10.90;99.90;;;;;;5095472;28;19970;-75
2021/05/27 01:03:52;;;;;;;;;;;10.90;99.90;;;;;;5083928;28;19996;-75
2021/05/27 01:06:18;;;;;;;;;;;10.90;99.90;;;;;;5085307;28;19960;-75
2021/05/27 01:08:45;;;;;;;;;;;10.90;99.90;;;;;;5087768;28;21708;-75
2021/05/27 01:11:15;;;;;;;;;;;10.90;99.90;;;;;;5102374;28;20576;-75
2021/05/27 01:13:41;;;;;;;;;;;10.80;99.90;;;;;;5074252;28;20410;-75
2021/05/27 01:16:12;;;;;;;;;;;10.80;99.90;;;;;;5069683;28;19952;-75
2021/05/27 01:18:39;;;;;;;;;;;10.80;99.90;;;;;;5072657;28;20405;-75
2021/05/27 01:21:05;;;;;;;;;;;10.80;99.90;;;;;;5101515;28;19958;-75
2021/05/27 01:23:33;;;;;;;;;;;10.80;99.90;;;;;;5090761;28;19973;-75
2021/05/27 01:25:59;;;;;;;;;;;10.80;99.90;;;;;;5087414;28;20012;-74
2021/05/27 01:28:28;;;;;;;;;;;10.70;99.90;;;;;;5071597;28;19954;-76
2021/05/27 01:30:57;;;;;;;;;;;10.70;99.90;;;;;;5102276;28;20019;-75
2021/05/27 01:33:32;;;;;;;;;;;10.70;99.90;;;;;;5072559;28;19993;-75
2021/05/27 01:36:00;;;;;;;;;;;10.80;99.90;;;;;;5071886;28;19952;-75
2021/05/27 01:38:28;;;;;;;;;;;10.80;99.90;;;;;;5070974;28;19967;-75
2021/05/27 01:40:57;;;;;;;;;;;10.70;99.90;;;;;;5085127;28;20266;-75
2021/05/27 01:43:24;;;;;;;;;;;10.70;99.90;;;;;;5086467;28;19983;-75
2021/05/27 01:45:53;;;;;;;;;;;10.80;99.90;;;;;;5083785;28;20036;-74
2021/05/27 01:48:20;;;;;;;;;;;10.80;99.90;;;;;;5097769;28;19962;-74
2021/05/27 01:50:48;;;;;;;;;;;10.70;99.90;;;;;;5083860;28;20046;-74
2021/05/27 01:53:14;;;;;;;;;;;10.70;99.90;;;;;;5088555;28;19951;-74
2021/05/27 01:55:41;;;;;;;;;;;10.70;99.90;;;;;;5064274;28;19952;-74
2021/05/27 01:58:09;;;;;;;;;;;10.70;99.90;;;;;;5089959;28;19989;-75
2021/05/27 02:00:35;;;;;;;;;;;10.70;99.90;;;;;;5068970;28;19955;-76
2021/05/27 02:03:03;;;;;;;;;;;10.70;99.90;;;;;;5103890;28;19960;-74
2021/05/27 02:05:33;;;;;;;;;;;10.70;99.90;;;;;;5069328;28;19963;-76
2021/05/27 02:08:02;;;;;;;;;;;10.70;99.90;;;;;;5087314;28;19955;-74
2021/05/27 02:10:54;;;;;;;;;;;10.70;99.90;;;;;;5081354;28;19964;-74
2021/05/27 02:13:22;;;;;;;;;;;10.70;99.90;;;;;;5071234;28;20003;-75
2021/05/27 02:15:53;;;;;;;;;;;10.70;99.90;;;;;;5069120;28;20471;-75
2021/05/27 02:18:19;;;;;;;;;;;10.70;99.90;;;;;;5070727;28;19996;-77
2021/05/27 02:20:46;;;;;;;;;;;10.70;99.90;;;;;;5066035;28;19961;-75
2021/05/27 02:23:12;;;;;;;;;;;10.70;99.90;;;;;;5105233;28;19956;-75
2021/05/27 02:25:59;;;;;;;;;;;10.70;99.90;;;;;;5073041;28;19955;-76
2021/05/27 02:28:49;;;;;;;;;;;10.70;99.90;;;;;;5075000;28;19963;-76
2021/05/27 02:31:16;;;;;;;;;;;10.70;99.90;;;;;;5102633;28;19956;-77
2021/05/27 02:33:47;;;;;;;;;;;10.70;99.90;;;;;;5088435;28;20000;-78
2021/05/27 02:36:23;;;;;;;;;;;10.70;99.90;;;;;;5084945;28;19995;-77
2021/05/27 02:38:49;;;;;;;;;;;10.60;99.90;;;;;;5087685;28;19955;-78
2021/05/27 02:41:18;;;;;;;;;;;10.60;99.90;;;;;;5089136;28;19956;-78
2021/05/27 02:43:47;;;;;;;;;;;10.60;99.90;;;;;;5068780;28;19953;-80
2021/05/27 02:46:16;;;;;;;;;;;10.60;99.90;;;;;;5071961;28;19956;-78
2021/05/27 02:48:49;;;;;;;;;;;10.60;99.90;;;;;;5105361;28;20500;-81
2021/05/27 02:51:15;;;;;;;;;;;10.60;99.90;;;;;;5089954;28;19956;-80
2021/05/27 02:53:42;;;;;;;;;;;10.60;99.90;;;;;;5102674;28;19953;-79
2021/05/27 02:56:08;;;;;;;;;;;10.50;99.90;;;;;;5071730;28;19996;-83
2021/05/27 02:58:41;;;;;;;;;;;10.50;99.90;;;;;;5071537;28;20048;-81
2021/05/27 03:01:08;;;;;;;;;;;10.60;99.90;;;;;;5088022;28;19996;-80
2021/05/27 03:03:39;;;;;;;;;;;10.50;99.90;;;;;;5103240;28;20948;-78
2021/05/27 03:06:07;;;;;;;;;;;10.50;99.90;;;;;;5072019;28;19953;-82
2021/05/27 03:08:37;;;;;;;;;;;10.50;99.90;;;;;;5072212;28;20030;-82
2021/05/27 03:11:04;;;;;;;;;;;10.50;99.90;;;;;;5101404;28;19957;-81
2021/05/27 03:13:31;;;;;;;;;;;10.50;99.90;;;;;;5072955;28;20301;-78
2021/05/27 03:15:57;;;;;;;;;;;10.50;99.90;;;;;;5085473;28;19953;-78
2021/05/27 03:18:30;;;;;;;;;;;10.50;99.90;;;;;;5087682;28;19956;-77
2021/05/27 03:21:00;;;;;;;;;;;10.50;99.90;;;;;;5085593;28;20015;-81
2021/05/27 03:23:29;;;;;;;;;;;10.50;99.90;;;;;;5102999;28;19957;-79
2021/05/27 03:25:55;;;;;;;;;;;10.50;99.90;;;;;;5101912;28;19964;-80
2021/05/27 03:28:23;;;;;;;;;;;10.50;99.90;;;;;;5102327;28;19999;-78
2021/05/27 03:30:52;;;;;;;;;;;10.50;99.90;;;;;;5089984;28;19996;-81
2021/05/27 03:33:19;;;;;;;;;;;10.40;99.90;;;;;;5069851;28;20044;-79
2021/05/27 03:35:46;;;;;;;;;;;10.40;99.90;;;;;;5070852;28;20500;-78
2021/05/27 03:38:13;;;;;;;;;;;10.40;99.90;;;;;;5071446;28;19963;-81
2021/05/27 03:40:40;;;;;;;;;;;10.40;99.90;;;;;;5084770;28;19951;-78
2021/05/27 03:43:08;;;;;;;;;;;10.40;99.90;;;;;;5067186;28;19959;-81
2021/05/27 03:45:36;;;;;;;;;;;10.40;99.90;;;;;;5100414;28;19952;-80
2021/05/27 03:48:13;;;;;;;;;;;10.40;99.90;;;;;;5067328;28;19959;-79
2021/05/27 03:50:39;;;;;;;;;;;10.40;99.90;;;;;;5088657;28;20466;-79
2021/05/27 03:53:10;;;;;;;;;;;10.40;99.90;;;;;;5085972;28;20316;-80
2021/05/27 03:55:38;;;;;;;;;;;10.40;99.90;;;;;;5103377;28;20492;-80
2021/05/27 04:00:48;;;;;;;;;;;10.40;99.90;;;;;;5087157;28;19962;-79
2021/05/27 04:09:15;;;;;;;;;;;10.40;99.90;;;;;;5085710;28;19926;-79
2021/05/27 04:11:42;;;;;;;;;;;10.60;99.90;;;;;;5086108;28;19935;-79
2021/05/27 04:14:08;;;;;;;;;;;10.80;99.90;;;;;;5089183;28;20402;-79
2021/05/27 04:16:35;;;;;;;;;;;10.60;99.90;;;;;;5069522;28;20406;-80
2021/05/27 04:19:01;;;;;;;;;;;10.80;99.90;;;;;;5071222;28;19952;-79
2021/05/27 04:21:27;;;;;;;;;;;10.90;99.90;;;;;;5087070;28;19966;-80
2021/05/27 04:23:53;;;;;;;;;;;10.80;99.90;;;;;;5069674;28;19923;-79
2021/05/27 04:26:20;;;;;;;;;;;10.90;99.90;;;;;;5083564;28;19926;-79
2021/05/27 04:28:47;;;;;;;;;;;11.00;99.90;;;;;;5068139;28;19924;-79
2021/05/27 04:31:15;;;;;;;;;;;11.10;99.90;;;;;;5103136;28;19949;-78
2021/05/27 04:33:50;;;;;;;;;;;11.10;99.90;;;;;;5068132;28;20425;-79
2021/05/27 04:36:18;;;;;;;;;;;11.20;99.90;;;;;;5103262;28;19920;-78
2021/05/27 04:38:45;;;;;;;;;;;11.20;99.90;;;;;;5086680;28;19928;-79
2021/05/27 04:41:12;;;;;;;;;;;11.20;99.90;;;;;;5067671;28;20312;-79
2021/05/27 04:43:39;;;;;;;;;;;10.90;99.90;;;;;;5067249;28;19924;-77
2021/05/27 04:46:06;;;;;;;;;;;10.80;99.90;;;;;;5084376;28;20376;-78
2021/05/27 04:48:32;;;;;;;;;;;10.70;99.90;;;;;;5085928;28;19958;-78
2021/05/27 04:50:59;;;;;;;;;;;10.60;99.90;;;;;;5102158;28;19958;-77
2021/05/27 04:53:26;;;;;;;;;;;10.50;99.90;;;;;;5084284;28;19962;-77
2021/05/27 04:55:52;;;;;;;;;;;10.50;99.90;;;;;;5068110;28;19951;-76
2021/05/27 04:58:19;;;;;;;;;;;10.50;99.90;;;;;;5083366;28;19989;-77
2021/05/27 05:00:45;;;;;;;;;;;10.40;99.90;;;;;;5084481;28;19999;-77
2021/05/27 05:03:12;;;;;;;;;;;10.40;99.90;;;;;;5083678;28;19959;-76
2021/05/27 05:05:39;;;;;;;;;;;10.40;99.90;;;;;;5085953;28;20014;-76
2021/05/27 05:08:05;;;;;;;;;;;10.30;99.90;;;;;;5082874;28;20094;-76
2021/05/27 05:10:32;;;;;;;;;;;10.30;99.90;;;;;;5068267;28;19959;-76
2021/05/27 05:12:59;;;;;;;;;;;10.30;99.90;;;;;;5080987;28;19928;-75
2021/05/27 05:15:26;;;;;;;;;;;10.50;99.90;;;;;;5086374;28;19934;-76
2021/05/27 05:17:53;;;;;;;;;;;10.70;99.90;;;;;;5066392;28;19997;-76
2021/05/27 05:20:21;;;;;;;;;;;10.80;99.90;;;;;;5082929;28;19927;-75
2021/05/27 05:22:47;;;;;;;;;;;10.90;99.90;;;;;;5084919;28;19943;-76
2021/05/27 05:25:13;;;;;;;;;;;10.90;99.90;;;;;;5081658;28;20011;-76
2021/05/27 05:27:40;;;;;;;;;;;11.00;99.90;;;;;;5100621;28;19920;-76
2021/05/27 05:30:07;;;;;;;;;;;11.00;99.90;;;;;;5067180;28;19924;-76
2021/05/27 05:32:34;;;;;;;;;;;11.00;99.90;;;;;;5085905;28;19924;-74
2021/05/27 05:35:00;;;;;;;;;;;11.00;99.90;;;;;;5082765;28;19924;-76
2021/05/27 05:37:27;;;;;;;;;;;11.10;99.90;;;;;;5086168;28;20000;-77
2021/05/27 05:39:54;;;;;;;;;;;11.10;99.90;;;;;;5084993;28;20273;-78
2021/05/27 05:42:20;;;;;;;;;;;11.10;99.90;;;;;;5084697;28;19924;-78
2021/05/27 05:44:47;;;;;;;;;;;11.10;99.90;;;;;;5085255;28;19927;-76
2021/05/27 05:47:13;;;;;;;;;;;11.20;99.90;;;;;;5066570;28;19920;-77
2021/05/27 05:49:39;;;;;;;;;;;11.10;99.90;;;;;;5068572;28;20018;-76
2021/05/27 05:52:05;;;;;;;;;;;11.10;99.90;;;;;;5083119;28;19924;-77
2021/05/27 05:54:32;;;;;;;;;;;11.10;99.90;;;;;;5100039;28;19923;-77
2021/05/27 05:56:59;;;;;;;;;;;10.90;99.90;;;;;;5089513;28;19954;-77
2021/05/27 05:59:25;;;;;;;;;;;10.70;99.90;;;;;;5069389;28;19959;-77
2021/05/27 06:01:51;;;;;;;;;;;10.90;99.90;;;;;;5089061;28;19969;-78
2021/05/27 06:04:19;;;;;;;;;;;11.00;99.90;;;;;;5074782;28;19920;-77
2021/05/27 06:06:56;;;;;;;;;;;11.10;99.90;;;;;;5073822;28;20304;-77
2021/05/27 06:09:24;;;;;;;;;;;11.10;99.90;;;;;;5092152;28;19924;-76
2021/05/27 06:11:51;;;;;;;;;;;11.10;99.90;;;;;;5091728;28;19928;-77
2021/05/27 06:14:17;;;;;;;;;;;11.10;99.90;;;;;;5091297;28;20383;-76
2021/05/27 06:16:44;;;;;;;;;;;11.10;99.90;;;;;;5091735;28;19927;-77
2021/05/27 06:19:10;;;;;;;;;;;11.10;99.90;;;;;;5073791;28;19923;-76
2021/05/27 06:21:55;;;;;;;;;;;11.20;99.90;;;;;;5090887;28;19985;-76
2021/05/27 06:24:34;;;;;;;;;;;11.10;99.90;;;;;;5071627;28;19943;-75
2021/05/27 06:27:01;;;;;;;;;;;11.20;99.90;;;;;;5090262;28;19924;-75
2021/05/27 06:29:28;;;;;;;;;;;11.20;99.90;;;;;;5091066;28;19920;-76
2021/05/27 06:31:54;;;;;;;;;;;11.20;99.90;;;;;;5072580;28;19970;-77
2021/05/27 06:34:20;;;;;;;;;;;11.30;99.90;;;;;;5071103;28;20229;-75
2021/05/27 06:36:47;;;;;;;;;;;11.30;99.90;;;;;;5090139;28;20018;-78
2021/05/27 06:39:13;;;;;;;;;;;11.30;99.90;;;;;;5090105;28;19996;-77
2021/05/27 06:41:39;;;;;;;;;;;11.30;99.90;;;;;;5091317;28;19923;-75
2021/05/27 06:44:07;;;;;;;;;;;11.30;99.90;;;;;;5091492;28;19924;-75
2021/05/27 06:46:33;;;;;;;;;;;11.30;99.90;;;;;;5105855;28;19920;-76
2021/05/27 06:48:59;;;;;;;;;;;11.40;99.90;;;;;;5091154;28;20401;-76
2021/05/27 06:51:25;;;;;;;;;;;11.40;99.90;;;;;;5091414;28;19963;-76
2021/05/27 06:53:52;;;;;;;;;;;11.20;99.90;;;;;;5090365;28;19950;-76
2021/05/27 06:56:22;;;;;;;;;;;11.00;99.90;;;;;;5104528;28;19957;-79
2021/05/27 06:58:49;;;;;;;;;;;10.80;99.90;;;;;;5071673;28;19997;-78
2021/05/27 07:01:16;;;;;;;;;;;10.70;99.90;;;;;;5090266;28;20047;-76
2021/05/27 07:03:42;;;;;;;;;;;10.70;99.90;;;;;;5089631;28;19985;-76
2021/05/27 07:06:09;;;;;;;40.97;8.98;;;10.60;99.90;;;;;;5090163;28;20392;-78
2021/05/27 07:08:36;;;;;;;40.80;9.65;;;10.60;99.90;;;;;;5090542;28;21925;-78
2021/05/27 07:11:03;;;;;;;44.90;10.00;;;10.60;99.90;;;;;;5090779;28;20213;-79
2021/05/27 07:13:29;;;;;;;;;;;10.60;99.90;;;;;;5091101;28;20214;-77
2021/05/27 07:15:55;;;;;;;36.75;9.93;;;10.60;99.90;;;;;;5090065;28;20188;-78
2021/05/27 07:18:23;;;;;;;41.38;9.73;;;10.60;99.90;;;;;;5091158;28;20202;-80
2021/05/27 07:20:49;;;;;;;37.50;9.07;;;10.50;99.90;;;;;;5090706;28;20210;-78
2021/05/27 07:23:17;;;;;;;47.30;10.75;;;10.50;99.90;;;;;;5088927;28;20679;-79
2021/05/27 07:25:44;;;;;;;43.65;10.38;;;10.50;99.90;;;;;;5106689;28;20695;-80
2021/05/27 07:28:11;;;;;;;36.13;9.93;;;10.50;99.90;;;;;;5090799;28;20205;-77
2021/05/27 07:30:38;;;;;;;33.92;10.13;;;10.50;99.90;;;;;;5089774;28;20206;-76
2021/05/27 07:33:05;;;;;;;39.25;9.73;;;10.60;99.90;;;;;;5068923;28;20217;-78
2021/05/27 07:35:32;;;;;;;33.92;10.10;;;10.60;99.90;;;;;;5083696;28;20211;-80
2021/05/27 07:38:00;;;;;;;37.60;10.32;;;10.60;99.90;;;;;;5068837;28;20229;-78
2021/05/27 07:40:27;;;;;;;40.38;10.30;;;10.60;99.90;;;;;;5084470;28;20210;-81
2021/05/27 07:42:54;;;;;;;44.40;10.35;;;10.60;99.90;;;;;;5088766;28;20594;-81
2021/05/27 07:45:21;;;;;;;42.95;10.38;;;10.60;99.90;;;;;;5086452;28;20333;-79
2021/05/27 07:47:47;;;;;;;39.58;9.80;;;10.60;99.90;;;;;;5084280;28;20206;-78
2021/05/27 07:50:14;;;;;;;40.50;10.70;;;10.60;99.90;;;;;;5069789;28;20258;-76
2021/05/27 07:52:42;;;;;;;46.80;10.20;;;10.60;99.90;;;;;;5069058;28;20610;-79
2021/05/27 07:55:08;;;;;;;;;;;10.60;99.90;;;;;;5088415;28;20462;-80
2021/05/27 07:57:35;;;;;;;;;;;10.50;99.90;;;;;;5069417;28;19968;-77
2021/05/27 08:00:01;;;;;;;;;;;10.50;99.90;;;;;;5086854;28;19963;-79
2021/05/27 08:02:27;;;;;;;;;;;10.60;99.90;;;;;;5087828;28;19967;-80
2021/05/27 08:04:53;;;;;;;;;;;10.60;99.90;;;;;;5086911;28;19964;-80
2021/05/27 08:07:20;;;;;;;;;;;10.50;99.90;;;;;;5085720;28;19963;-77
2021/05/27 08:09:47;;;;;;;;;;;10.60;99.90;;;;;;5086125;28;19959;-77
2021/05/27 08:12:13;;;;;;;;;;;10.60;99.90;;;;;;5087461;28;20070;-78
2021/05/27 08:14:39;;;;;;;;;;;10.60;99.90;;;;;;5087353;28;19956;-76
2021/05/27 08:17:05;;;;;;;;;;;10.60;99.90;;;;;;5088334;28;20009;-75
2021/05/27 08:19:32;;;;;;;;;;;10.60;99.90;;;;;;5068545;28;19959;-78
2021/05/27 08:21:58;;;;;;;;;;;10.60;99.90;;;;;;5087081;28;19964;-80
2021/05/27 08:24:24;;;;;;;;;;;10.60;99.90;;;;;;5086761;28;19955;-79
2021/05/27 08:26:51;;;;;;;;;;;10.70;99.90;;;;;;5085004;28;19970;-75
2021/05/27 08:29:18;;;;;;;;;;;10.70;99.90;;;;;;5086184;28;19970;-76
2021/05/27 08:31:44;;;;;;;;;;;10.70;99.90;;;;;;5069411;28;19960;-76
2021/05/27 08:34:10;;;;;;;;;;;10.70;99.90;;;;;;5099913;28;19963;-76
2021/05/27 08:36:38;;;;;;;;;;;11.00;99.90;;;;;;5070005;28;19924;-76
2021/05/27 08:39:05;;;;;;;32.85;9.80;;;11.30;99.90;;;;;;5083009;28;20059;-79
2021/05/27 08:41:32;;;;;;;35.70;8.45;;;11.20;99.90;;;;;;5082673;28;20198;-76
2021/05/27 08:44:00;;;;;;;33.85;9.00;;;11.00;99.90;;;;;;5080497;28;20237;-76
2021/05/27 08:46:27;;;;;;;;;;;11.00;99.90;;;;;;5082003;28;19964;-77
2021/05/27 08:48:53;;;;;;;;;;;10.90;99.90;;;;;;5068194;28;19958;-78
2021/05/27 08:51:19;;;;;;;;;;;10.90;99.90;;;;;;5087339;28;20049;-76
2021/05/27 08:53:45;;;;;;;;;;;10.90;99.90;;;;;;5083872;28;20186;-75
2021/05/27 08:56:12;;;;;;;;;;;10.90;99.90;;;;;;5081157;28;20435;-78
2021/05/27 08:58:38;;;;;;;;;;;10.90;99.90;;;;;;5083642;28;19988;-76
2021/05/27 09:01:05;;;;;;;;;;;10.90;99.90;;;;;;5085445;28;20324;-77
2021/05/27 09:03:39;;;;;;;;;;;10.90;99.90;;;;;;5084684;28;20052;-77
2021/05/27 09:06:05;;;;;;;;;;;10.90;99.90;;;;;;5067077;28;20337;-76
2021/05/27 09:08:33;;;;;;;;;;;11.00;99.90;;;;;;5084142;28;19963;-76
2021/05/27 09:11:00;;;;;;;;;;;11.00;99.90;;;;;;5084012;28;20411;-76
2021/05/27 09:13:27;;;;;;;;;;;11.00;99.90;;;;;;5067632;28;19967;-76
2021/05/27 09:15:53;;;;;;;;;;;11.10;99.90;;;;;;5084037;28;20063;-77
2021/05/27 09:18:30;;;;;;;33.13;9.30;;;11.10;99.90;;;;;;5081998;28;20719;-76
2021/05/27 09:20:57;;;;;;;38.80;10.63;;;11.10;99.90;;;;;;5085153;28;20213;-78
2021/05/27 09:23:24;;;;;;;37.28;10.88;;;11.10;99.90;;;;;;5063679;28;20209;-77
2021/05/27 09:25:52;;;;;;;29.33;10.02;;;11.20;99.90;;;;;;5085712;28;20197;-76
2021/05/27 09:28:22;;;;;;;40.47;9.98;;;11.20;99.90;;;;;;5084350;28;20202;-75
2021/05/27 09:30:51;;;;;;;34.42;9.93;;;11.20;99.90;;;;;;5087091;28;20202;-76
2021/05/27 09:33:18;;;;;;;32.67;8.88;;;11.20;99.90;;;;;;5085165;28;20209;-76
2021/05/27 09:35:46;;;;;;;36.95;8.57;;;11.30;99.90;;;;;;5084616;28;20591;-75
2021/05/27 09:38:13;;;;;;;39.80;10.23;;;11.30;99.90;;;;;;5087670;28;20259;-74
2021/05/27 09:40:42;;;;;;;41.42;13.18;;;11.30;99.90;;;;;;5069794;28;20905;-75
2021/05/27 09:43:10;;;;;;;45.33;11.27;;;11.50;99.90;;;;;;5086341;28;20928;-74
2021/05/27 09:45:38;;;;;;;35.10;10.70;;;11.80;99.90;;;;;;5084430;28;20431;-74
2021/05/27 09:48:18;;;;;;;36.47;10.77;;;11.90;99.90;;;;;;5067197;28;20562;-74
2021/05/27 09:50:47;;;;;;;34.70;8.40;;;12.00;99.90;;;;;;5084988;28;21209;-76
2021/05/27 09:53:16;;;;;;;27.67;9.38;;;11.80;99.90;;;;;;5069244;28;20226;-76
2021/05/27 09:55:44;;;;;;;27.35;7.38;;;11.70;99.90;;;;;;5088121;28;20039;-75
2021/05/27 09:58:12;;;;;;;27.37;8.77;;;11.60;99.90;;;;;;5083547;28;20437;-76
2021/05/27 10:00:40;;;;;;;25.55;8.65;;;11.80;99.90;;;;;;5083569;28;20456;-75
2021/05/27 10:03:31;;;;;;;21.80;7.27;;;12.00;99.90;;;;;;5087075;28;20424;-74
2021/05/27 10:06:00;;;;;;;24.45;7.68;;;12.20;99.90;;;;;;5101081;28;20502;-75
2021/05/27 10:08:29;;;;;;;24.02;7.80;;;12.30;99.90;;;;;;5084659;28;20970;-75
2021/05/27 10:10:56;;;;;;;23.90;7.90;;;12.40;99.90;;;;;;5086352;28;20563;-75
2021/05/27 10:13:28;;;;;;;30.63;8.83;;;12.40;99.90;;;;;;5084543;28;20436;-75
2021/05/27 10:15:54;;;;;;;34.17;8.63;;;12.50;99.90;;;;;;5099899;28;20469;-77
2021/05/27 10:18:22;;;;;;;37.78;9.52;;;12.60;99.90;;;;;;5067186;28;20411;-74
2021/05/27 10:20:50;;;;;;;27.92;7.60;;;12.70;99.90;;;;;;5099286;28;22175;-74
2021/05/27 10:23:17;;;;;;;36.75;8.50;;;12.50;99.90;;;;;;5082194;28;21085;-74
2021/05/27 10:25:45;;;;;;;35.88;8.18;;;12.40;99.90;;;;;;5082993;28;20210;-75
2021/05/27 10:28:15;;;;;;;32.67;7.80;;;12.40;99.90;;;;;;5084698;28;20324;-75
2021/05/27 10:30:44;;;;;;;29.13;7.47;;;12.30;99.90;;;;;;5083178;28;20209;-74
2021/05/27 10:33:16;;;;;;;34.75;7.60;;;12.40;99.90;;;;;;5083936;28;20586;-74
2021/05/27 10:35:53;;;;;;;29.65;8.23;;;12.40;99.90;;;;;;5084835;28;20624;-75
2021/05/27 10:38:52;;;;;;;25.13;6.78;;;12.40;99.90;;;;;;5083589;28;20205;-77
2021/05/27 10:41:38;;;;;;;28.52;6.70;;;12.40;99.90;;;;;;5103205;28;20206;-76
2021/05/27 10:44:16;;;;;;;31.55;7.25;;;12.50;99.90;;;;;;5083872;28;20229;-75
2021/05/27 10:47:12;;;;;;;25.33;7.28;;;12.50;99.90;;;;;;5087354;28;20206;-76
2021/05/27 10:49:57;;;;;;;36.72;7.00;;;12.50;99.90;;;;;;5033171;28;20658;-76
2021/05/27 10:52:39;;;;;;;24.85;5.93;;;12.50;99.90;;;;;;5069317;28;20225;-75
2021/05/27 10:55:41;;;;;;;28.90;6.57;;;12.50;99.90;;;;;;5095038;28;20340;-75
2021/05/27 10:58:08;;;;;;;38.28;6.43;;;12.50;99.90;;;;;;5084070;28;20201;-75
2021/05/27 11:00:55;;;;;;;29.92;6.25;;;12.40;99.90;;;;;;5086588;28;20205;-75
2021/05/27 11:03:41;;;;;;;23.67;6.00;;;12.40;99.90;;;;;;5077764;28;20217;-77
2021/05/27 11:06:27;;;;;;;25.30;5.40;;;12.40;99.90;;;;;;5101245;28;20198;-75
2021/05/27 11:09:31;;;;;;;18.90;4.75;;;12.50;99.90;;;;;;5088385;28;20206;-74
2021/05/27 11:12:10;;;;;;;15.57;4.50;;;12.60;99.90;;;;;;5083579;28;20213;-76
2021/05/27 11:14:40;;;;;;;19.63;5.03;;;12.70;99.90;;;;;;5102576;28;20673;-76
2021/05/27 11:17:22;;;;;;;17.73;5.00;;;12.70;99.90;;;;;;5085044;28;20198;-75
2021/05/27 11:19:52;;;;;;;21.00;5.18;;;12.80;99.90;;;;;;5085906;28;20251;-75
2021/05/27 11:22:48;;;;;;;19.30;4.97;;;12.80;99.90;;;;;;5080876;28;20198;-75
2021/05/27 11:25:36;;;;;;;24.30;5.53;;;12.80;99.90;;;;;;5086880;28;20230;-79
2021/05/27 11:28:26;;;;;;;21.30;5.15;;;12.80;99.90;;;;;;5078250;28;20645;-75
2021/05/27 11:30:56;;;;;;;23.77;5.65;;;12.80;99.90;;;;;;5069106;28;20206;-76
2021/05/27 11:33:39;;;;;;;22.25;5.18;;;12.80;99.90;;;;;;5081262;28;20210;-76
2021/05/27 11:36:12;;;;;;;22.05;4.63;;;12.80;99.90;;;;;;5063889;28;20219;-75
2021/05/27 11:38:40;;;;;;;27.25;5.18;;;12.80;99.90;;;;;;5086871;28;20220;-76
2021/05/27 11:41:10;;;;;;;15.20;4.00;;;12.80;99.90;;;;;;5086269;28;20206;-75
2021/05/27 11:43:37;;;;;;;25.75;4.22;;;12.80;99.90;;;;;;5084724;28;20233;-75
2021/05/27 11:46:06;;;;;;;17.33;3.97;;;12.90;99.90;;;;;;5086337;28;20201;-75
2021/05/27 11:48:36;;;;;;;16.08;3.63;;;12.90;99.90;;;;;;5084480;28;20189;-76
2021/05/27 11:51:05;;;;;;;16.52;3.47;;;12.90;99.90;;;;;;5083998;28;20216;-75
2021/05/27 11:53:47;;;;;;;19.02;3.60;;;13.00;99.90;;;;;;5085127;28;20254;-75
2021/05/27 11:56:26;;;;;;;15.48;2.85;;;13.00;99.90;;;;;;5085636;28;20709;-75
2021/05/27 11:58:53;;;;;;;16.13;3.17;;;13.00;99.90;;;;;;5083041;28;20823;-76
2021/05/27 12:01:23;;;;;;;18.77;3.25;;;13.00;99.90;;;;;;5084261;28;20214;-75
2021/05/27 12:04:13;;;;;;;14.57;3.28;;;13.10;99.90;;;;;;5082707;28;20202;-75
2021/05/27 12:06:51;;;;;;;20.50;3.88;;;13.00;99.90;;;;;;5084119;28;20301;-75
2021/05/27 12:09:26;;;;;;;17.73;3.08;;;13.00;99.90;;;;;;5066883;28;20263;-75
2021/05/27 12:11:53;;;;;;;15.65;3.63;;;13.00;99.90;;;;;;5099249;28;20273;-75
2021/05/27 12:14:20;;;;;;;15.05;3.03;;;13.10;99.90;;;;;;5083957;28;20205;-75
2021/05/27 12:16:47;;;;;;;13.70;2.83;;;13.10;99.90;;;;;;5083742;28;20592;-75
2021/05/27 12:19:14;;;;;;;16.80;3.25;;;13.20;99.90;;;;;;5083092;28;20923;-75
2021/05/27 12:21:55;;;;;;;15.65;2.90;;;13.10;99.90;;;;;;5083900;28;20926;-75
2021/05/27 12:24:24;;;;;;;17.70;3.03;;;13.20;99.90;;;;;;5082977;28;20649;-76
2021/05/27 12:26:50;;;;;;;15.70;3.63;;;13.20;99.90;;;;;;5085608;28;20225;-75
2021/05/27 12:29:17;;;;;;;12.32;2.70;;;13.20;99.90;;;;;;5082748;28;20205;-76
2021/05/27 12:31:45;;;;;;;17.50;3.33;;;13.20;99.90;;;;;;5086010;28;20202;-76
2021/05/27 12:34:15;;;;;;;14.45;2.90;;;13.10;99.90;;;;;;5086475;28;20201;-75
2021/05/27 12:36:52;;;;;;;11.23;2.40;;;13.20;99.90;;;;;;5082995;28;20596;-75
2021/05/27 12:39:32;;;;;;;11.98;2.67;;;13.20;99.90;;;;;;5084154;28;20204;-75
2021/05/27 12:41:59;;;;;;;11.55;2.63;;;13.20;99.90;;;;;;5085229;28;20201;-76
2021/05/27 12:44:30;;;;;;;16.27;2.90;;;13.20;99.90;;;;;;5067176;28;20241;-75
2021/05/27 12:46:57;;;;;;;19.20;2.95;;;13.20;99.90;;;;;;5085899;28;20266;-76
2021/05/27 12:49:31;;;;;;;13.68;2.70;;;13.30;99.90;;;;;;5084681;28;20208;-75
2021/05/27 12:51:58;;;;;;;16.52;3.20;;;13.30;99.90;;;;;;5085363;28;20212;-75
2021/05/27 12:54:24;;;;;;;17.80;2.83;;;13.30;99.90;;;;;;5084376;28;20251;-76
2021/05/27 12:57:01;;;;;;;19.88;3.28;;;13.40;99.90;;;;;;5085648;28;20200;-75
2021/05/27 12:59:27;;;;;;;20.45;3.78;;;13.40;99.90;;;;;;5083229;28;20205;-75
2021/05/27 13:01:58;;;;;;;17.35;3.10;;;13.40;99.90;;;;;;5083565;28;20198;-75
2021/05/27 13:04:31;;;;;;;11.85;3.30;;;13.40;99.90;;;;;;5086760;28;20273;-76
2021/05/27 13:07:07;;;;;;;24.05;3.22;;;13.40;99.90;;;;;;5087954;28;20285;-75
2021/05/27 13:09:47;;;;;;;14.90;3.10;;;13.40;99.90;;;;;;5088107;28;20197;-75
2021/05/27 13:12:16;;;;;;;11.82;2.53;;;13.40;99.90;;;;;;5085415;28;20251;-74
2021/05/27 13:14:44;;;;;;;8.90;2.20;;;13.40;99.90;;;;;;5087960;28;20214;-75
2021/05/27 13:17:13;;;;;;;10.57;2.55;;;13.50;99.90;;;;;;5070469;28;20210;-76
2021/05/27 13:19:42;;;;;;;10.23;2.70;;;13.50;99.90;;;;;;5088336;28;20569;-76
2021/05/27 13:22:21;;;;;;;9.95;2.20;;;13.60;99.90;;;;;;5086277;28;20210;-76
2021/05/27 13:24:57;;;;;;;10.55;2.40;;;13.60;99.90;;;;;;5104740;28;20216;-75
2021/05/27 13:27:28;;;;;;;12.23;2.65;;;13.70;99.90;;;;;;5087214;28;20197;-75
2021/05/27 13:29:56;;;;;;;17.65;2.72;;;13.70;99.90;;;;;;5087893;28;20704;-75
2021/05/27 13:32:24;;;;;;;15.15;2.60;;;13.70;99.90;;;;;;5084172;28;20565;-77
2021/05/27 13:34:52;;;;;;;13.10;2.25;;;13.70;99.90;;;;;;5085470;28;20228;-76
2021/05/27 13:37:31;;;;;;;14.27;2.97;;;13.70;99.90;;;;;;5084409;28;20202;-78
2021/05/27 13:39:58;;;;;;;14.40;4.03;;;13.80;99.90;;;;;;5090247;28;20714;-75
2021/05/27 13:42:24;;;;;;;12.43;3.33;;;13.80;99.90;;;;;;5088451;28;20259;-75
2021/05/27 13:44:51;;;;;;;10.02;2.67;;;13.80;99.90;;;;;;5088431;28;20236;-76
2021/05/27 13:47:18;;;;;;;11.23;3.22;;;13.90;99.90;;;;;;5083272;28;20202;-76
2021/05/27 13:49:45;;;;;;;12.27;2.95;;;13.90;99.90;;;;;;5086521;28;20258;-75
2021/05/27 13:52:12;;;;;;;11.07;3.17;;;13.90;99.90;;;;;;5068119;28;20626;-76
2021/05/27 13:54:40;;;;;;;14.40;3.03;;;13.90;99.90;;;;;;5086559;28;20653;-76